DAL5689 KBOS-KDCA
Flight info
| Callsign | DAL5689 |
|---|---|
| Flight time | N/A |
| Altitude | 32000 |
| Route | SSOXS7 SSOXS Q167 ZIZZI KNUKK ATR LAFLN DEALE3 |
| Aircraft | A332/H-SDE3GHIJ2J3J5M1RVWXY/LB2D1 |
Departure
| Time | 2026-05-03 22:47 |
|---|---|
| Airport | Boston Logan International Airport (KBOS) |
Arrival
| Time | N/A |
|---|---|
| Airport | Ronald Reagan Washington National Airport (KDCA) |
| Time | Latitude | Longitude | Altitude | Speed | Heading |
|---|---|---|---|---|---|
| 2026-05-03 22:16 | 42.37135 | -71.02009 | 29 ft | 0 kts | 211° |
| 2026-05-03 22:32 | 42.37152 | -71.01995 | 28 ft | 4 kts | 211° |
| 2026-05-03 22:32 | 42.37175 | -71.01976 | 29 ft | 4 kts | 211° |
| 2026-05-03 22:32 | 42.37195 | -71.01962 | 28 ft | 4 kts | 180° |
| 2026-05-03 22:33 | 42.37215 | -71.01974 | 28 ft | 4 kts | 124° |
| 2026-05-03 22:33 | 42.37228 | -71.02006 | 26 ft | 4 kts | 108° |
| 2026-05-03 22:33 | 42.37235 | -71.02041 | 27 ft | 4 kts | 101° |
| 2026-05-03 22:33 | 42.37239 | -71.02077 | 27 ft | 4 kts | 95° |
| 2026-05-03 22:34 | 42.37239 | -71.02113 | 27 ft | 4 kts | 79° |
| 2026-05-03 22:34 | 42.37230 | -71.02144 | 27 ft | 3 kts | 44° |
| 2026-05-03 22:34 | 42.37213 | -71.02166 | 26 ft | 3 kts | 43° |
| 2026-05-03 22:34 | 42.37209 | -71.02170 | 26 ft | 0 kts | 43° |
| 2026-05-03 22:37 | 42.37219 | -71.02157 | 26 ft | 7 kts | 47° |
| 2026-05-03 22:37 | 42.37238 | -71.02053 | 27 ft | 15 kts | 96° |
| 2026-05-03 22:38 | 42.37201 | -71.01913 | 29 ft | 17 kts | 121° |
| 2026-05-03 22:38 | 42.37134 | -71.01768 | 29 ft | 19 kts | 122° |
| 2026-05-03 22:38 | 42.37046 | -71.01618 | 29 ft | 21 kts | 133° |
| 2026-05-03 22:38 | 42.36938 | -71.01467 | 29 ft | 23 kts | 134° |
| 2026-05-03 22:39 | 42.36818 | -71.01306 | 29 ft | 25 kts | 136° |
| 2026-05-03 22:39 | 42.36699 | -71.01247 | 29 ft | 18 kts | 189° |
| 2026-05-03 22:39 | 42.36571 | -71.01302 | 29 ft | 20 kts | 203° |
| 2026-05-03 22:39 | 42.36443 | -71.01381 | 29 ft | 16 kts | 201° |
| 2026-05-03 22:40 | 42.36356 | -71.01370 | 29 ft | 13 kts | 131° |
| 2026-05-03 22:40 | 42.36304 | -71.01250 | 29 ft | 17 kts | 119° |
| 2026-05-03 22:40 | 42.36234 | -71.01067 | 29 ft | 27 kts | 114° |
| 2026-05-03 22:40 | 42.36156 | -71.00825 | 29 ft | 29 kts | 114° |
| 2026-05-03 22:41 | 42.36079 | -71.00565 | 29 ft | 31 kts | 108° |
| 2026-05-03 22:41 | 42.36016 | -71.00308 | 29 ft | 28 kts | 107° |
| 2026-05-03 22:41 | 42.35948 | -71.00078 | 29 ft | 19 kts | 126° |
| 2026-05-03 22:41 | 42.35858 | -70.99946 | 29 ft | 20 kts | 134° |
| 2026-05-03 22:42 | 42.35760 | -70.99813 | 29 ft | 20 kts | 135° |
| 2026-05-03 22:42 | 42.35658 | -70.99675 | 29 ft | 21 kts | 135° |
| 2026-05-03 22:42 | 42.35551 | -70.99535 | 29 ft | 22 kts | 135° |
| 2026-05-03 22:42 | 42.35485 | -70.99408 | 29 ft | 12 kts | 91° |
| 2026-05-03 22:43 | 42.35490 | -70.99381 | 29 ft | 0 kts | 69° |
| 2026-05-03 22:45 | 42.35491 | -70.99378 | 29 ft | 2 kts | 69° |
| 2026-05-03 22:45 | 42.35507 | -70.99322 | 29 ft | 11 kts | 65° |
| 2026-05-03 22:45 | 42.35570 | -70.99307 | 29 ft | 10 kts | 328° |
| 2026-05-03 22:46 | 42.35595 | -70.99340 | 29 ft | 9 kts | 314° |
| 2026-05-03 22:46 | 42.35815 | -70.99639 | 29 ft | 79 kts | 315° |
| 2026-05-03 22:46 | 42.36355 | -71.00358 | 32 ft | 136 kts | 315° |
| 2026-05-03 22:46 | 42.37092 | -71.01335 | 422 ft | 155 kts | 314° |
| 2026-05-03 22:47 | 42.37870 | -71.02401 | 1154 ft | 162 kts | 313° |
| 2026-05-03 22:47 | 42.38551 | -71.03601 | 2031 ft | 161 kts | 297° |
| 2026-05-03 22:47 | 42.38879 | -71.05016 | 2824 ft | 162 kts | 287° |
| 2026-05-03 22:47 | 42.39240 | -71.06512 | 3470 ft | 170 kts | 292° |
| 2026-05-03 22:48 | 42.39772 | -71.08004 | 3912 ft | 190 kts | 299° |
| 2026-05-03 22:48 | 42.40308 | -71.09795 | 4216 ft | 223 kts | 279° |
| 2026-05-03 22:48 | 42.40018 | -71.11945 | 4871 ft | 247 kts | 248° |
| 2026-05-03 22:48 | 42.39124 | -71.13972 | 5854 ft | 253 kts | 240° |
| 2026-05-03 22:49 | 42.38112 | -71.15940 | 6917 ft | 256 kts | 239° |
| 2026-05-03 22:49 | 42.37004 | -71.17855 | 7954 ft | 263 kts | 230° |
| 2026-05-03 22:49 | 42.35476 | -71.19298 | 8996 ft | 277 kts | 207° |
| 2026-05-03 22:49 | 42.33544 | -71.19743 | 9988 ft | 293 kts | 180° |
| 2026-05-03 22:50 | 42.31470 | -71.19126 | 10541 ft | 320 kts | 165° |
| 2026-05-03 22:50 | 42.29304 | -71.18054 | 11018 ft | 341 kts | 162° |
| 2026-05-03 22:50 | 42.27066 | -71.16873 | 11771 ft | 350 kts | 161° |